Time;durP1;ratioP1;P1;durP2;ratioP2;P2;SDS_P1;SDS_P2;PMS_P1;PMS_P2;Temp;Humidity;BMP_temperature;BMP_pressure;BME280_temperature;BME280_humidity;BME280_pressure;Samples;Min_cycle;Max_cycle;Signal;HPM_P1;HPM_P2
2024/03/20 00:00:14;;;;;;;93.03;49.43;;;;;;;4.98;55.75;100888.72;5075306;27;97374;-74
2024/03/20 00:02:40;;;;;;;97.17;51.47;;;;;;;4.98;55.53;100888.72;5043050;27;96854;-75
2024/03/20 00:05:07;;;;;;;97.47;47.70;;;;;;;4.94;55.84;100873.97;5021925;27;96953;-75
2024/03/20 00:07:32;;;;;;;98.27;50.93;;;;;;;4.80;55.66;100861.88;5042093;27;101589;-75
2024/03/20 00:09:58;;;;;;;96.20;49.47;;;;;;;4.97;55.55;100889.63;5017214;27;100908;-75
2024/03/20 00:12:23;;;;;;;91.67;48.60;;;;;;;4.67;56.40;100872.28;5062359;27;97817;-74
2024/03/20 00:14:49;;;;;;;99.40;50.43;;;;;;;4.56;57.11;100889.63;5060372;27;96985;-81
2024/03/20 00:17:15;;;;;;;95.83;48.53;;;;;;;4.64;56.99;100879.25;5071992;27;97537;-75
2024/03/20 00:19:40;;;;;;;95.30;48.70;;;;;;;4.67;56.68;100869.69;5043076;27;97520;-75
2024/03/20 00:22:06;;;;;;;101.07;49.60;;;;;;;4.70;56.41;100879.22;5052155;27;96763;-75
2024/03/20 00:24:32;;;;;;;95.47;49.20;;;;;;;4.61;56.84;100871.44;5071566;27;96813;-76
2024/03/20 00:26:58;;;;;;;101.63;51.37;;;;;;;4.65;56.84;100879.22;5075869;27;97541;-75
2024/03/20 00:29:23;;;;;;;91.73;47.83;;;;;;;4.64;56.36;100869.69;5037794;27;100707;-74
2024/03/20 00:31:49;;;;;;;97.57;48.37;;;;;;;4.57;57.06;100868.00;5054618;27;97334;-78
2024/03/20 00:34:17;;;;;;;100.20;49.87;;;;;;;4.62;56.46;100873.16;5052975;27;96759;-76
2024/03/20 00:36:42;;;;;;;94.17;49.63;;;;;;;4.30;57.44;100837.66;5075124;27;97424;-74
2024/03/20 00:39:08;;;;;;;100.70;50.13;;;;;;;4.19;57.44;100823.78;5062157;27;97431;-74
2024/03/20 00:41:34;;;;;;;102.03;50.73;;;;;;;4.08;57.57;100829.00;5032347;27;96886;-75
2024/03/20 00:44:00;;;;;;;104.60;54.80;;;;;;;4.04;58.11;100854.13;5053454;27;97153;-79
2024/03/20 00:46:25;;;;;;;102.27;52.37;;;;;;;4.03;58.27;100851.50;5063382;27;97434;-75
2024/03/20 00:48:51;;;;;;;104.63;52.07;;;;;;;3.94;58.70;100841.09;5047666;27;97459;-75
2024/03/20 00:51:16;;;;;;;103.37;53.77;;;;;;;3.99;58.67;100845.44;5012286;27;97159;-74
2024/03/20 00:53:42;;;;;;;105.40;53.27;;;;;;;4.08;58.25;100837.66;5030100;27;96906;-75
2024/03/20 00:56:07;;;;;;;104.67;53.60;;;;;;;3.99;58.40;100837.66;5046398;27;101440;-75
2024/03/20 00:58:33;;;;;;;94.40;51.10;;;;;;;4.04;58.34;100841.13;5012536;27;101099;-75
2024/03/20 01:00:59;;;;;;;100.50;53.50;;;;;;;4.14;58.20;100847.19;5071633;27;96823;-74
2024/03/20 01:03:24;;;;;;;105.63;56.00;;;;;;;4.18;58.08;100842.84;5035135;27;97577;-74
2024/03/20 01:05:50;;;;;;;112.63;55.60;;;;;;;4.10;57.69;100814.25;5054586;27;97338;-78
2024/03/20 01:08:16;;;;;;;96.23;49.83;;;;;;;3.90;58.11;100808.19;5040749;27;97478;-75
2024/03/20 01:10:41;;;;;;;104.60;54.23;;;;;;;4.06;58.36;100830.72;5076762;27;97190;-75
2024/03/20 01:13:07;;;;;;;102.10;52.23;;;;;;;3.96;58.39;100829.00;5041728;27;97123;-76
2024/03/20 01:15:34;;;;;;;100.17;51.50;;;;;;;3.81;58.65;100815.13;5042689;27;98506;-75
2024/03/20 01:17:59;;;;;;;105.37;51.67;;;;;;;3.89;58.54;100828.09;5061416;27;97440;-78
2024/03/20 01:20:25;;;;;;;102.87;54.00;;;;;;;3.75;58.83;100835.00;5062840;27;96799;-75
2024/03/20 01:22:51;;;;;;;106.90;51.70;;;;;;;3.55;59.15;100824.56;5038425;27;97444;-75
2024/03/20 01:25:17;;;;;;;105.17;52.37;;;;;;;3.29;60.01;100827.97;5070451;27;97376;-75
2024/03/20 01:27:43;;;;;;;103.70;50.67;;;;;;;3.13;60.58;100818.38;5058335;27;97927;-75
2024/03/20 01:30:08;;;;;;;104.37;51.97;;;;;;;3.07;60.50;100826.13;5053500;27;96887;-75
2024/03/20 01:32:34;;;;;;;96.67;49.50;;;;;;;3.10;60.79;100831.34;5010069;27;97204;-75
2024/03/20 01:34:59;;;;;;;96.57;49.63;;;;;;;3.07;60.51;100797.59;5021297;27;100699;-74
2024/03/20 01:37:25;;;;;;;100.43;48.53;;;;;;;3.23;60.28;100803.69;5035599;27;100758;-76
2024/03/20 01:39:51;;;;;;;94.30;48.20;;;;;;;3.46;60.10;100829.72;5038748;27;97271;-75
2024/03/20 01:42:16;;;;;;;95.97;50.47;;;;;;;3.43;59.81;100806.38;5041539;27;97125;-75
2024/03/20 01:44:42;;;;;;;91.23;46.70;;;;;;;3.57;59.52;100823.69;5056001;27;98126;-75
2024/03/20 01:47:07;;;;;;;90.83;46.90;;;;;;;3.24;60.13;100815.81;5050738;27;97246;-79
2024/03/20 01:49:34;;;;;;;93.97;46.77;;;;;;;3.08;61.07;100820.94;5030830;27;96938;-75
2024/03/20 01:52:00;;;;;;;97.07;47.67;;;;;;;3.05;60.66;100804.50;5032610;27;96785;-74
2024/03/20 01:54:26;;;;;;;97.10;48.23;;;;;;;3.33;60.29;100813.25;5064185;27;97481;-74
2024/03/20 01:56:54;;;;;;;85.97;44.30;;;;;;;3.33;59.92;100819.31;5037673;27;101324;-75
2024/03/20 01:59:19;;;;;;;86.70;45.70;;;;;;;2.89;61.48;100809.63;5040699;27;96786;-74
2024/03/20 02:01:45;;;;;;;87.33;43.90;;;;;;;3.04;61.12;100820.94;5041289;27;96915;-76
2024/03/20 02:04:10;;;;;;;88.97;44.80;;;;;;;3.02;61.47;100818.31;5036193;27;101538;-75
2024/03/20 02:06:36;;;;;;;96.30;45.40;;;;;;;2.99;61.11;100810.53;5055480;27;97405;-75
2024/03/20 02:09:04;;;;;;;88.03;47.07;;;;;;;2.84;61.85;100805.25;5041375;27;97047;-76
2024/03/20 02:11:30;;;;;;;85.73;44.93;;;;;;;2.71;61.81;100773.22;5041901;27;97284;-80
2024/03/20 02:13:57;;;;;;;91.67;44.63;;;;;;;2.91;61.54;100817.41;5050563;27;101283;-75
2024/03/20 02:16:24;;;;;;;84.50;43.63;;;;;;;2.79;61.60;100789.66;5037955;27;101303;-75
2024/03/20 02:18:50;;;;;;;80.70;43.47;;;;;;;2.88;61.58;100801.81;5037168;27;96807;-75
2024/03/20 02:21:20;;;;;;;82.30;44.67;;;;;;;2.86;62.08;100800.97;5056158;27;97253;-74
2024/03/20 02:23:46;;;;;;;87.77;44.13;;;;;;;3.01;61.71;100808.81;5047344;27;97542;-75
2024/03/20 02:26:12;;;;;;;86.93;45.73;;;;;;;2.92;61.51;100804.44;5035393;27;100480;-74
2024/03/20 02:28:39;;;;;;;78.30;42.17;;;;;;;3.02;61.08;100802.75;5036927;27;97167;-74
2024/03/20 02:31:05;;;;;;;80.00;43.17;;;;;;;3.01;61.26;100785.47;5054501;27;96800;-75
2024/03/20 02:33:32;;;;;;;83.40;43.70;;;;;;;3.17;61.09;100807.13;5040519;27;100796;-80
2024/03/20 02:35:57;;;;;;;86.07;41.97;;;;;;;3.26;60.92;100798.53;5054915;27;97333;-74
2024/03/20 02:38:28;;;;;;;87.13;43.43;;;;;;;3.36;60.38;100808.09;5057883;27;97131;-75
2024/03/20 02:40:56;;;;;;;87.47;43.03;;;;;;;3.46;60.24;100807.25;5041383;27;96855;-75
2024/03/20 02:43:22;;;;;;;81.90;43.03;;;;;;;3.49;60.22;100799.47;5029863;27;97466;-75
2024/03/20 02:45:48;;;;;;;76.27;42.27;;;;;;;3.54;59.90;100804.66;5037013;27;101615;-74
2024/03/20 02:48:13;;;;;;;77.33;41.77;;;;;;;3.62;59.79;100805.56;5032419;27;97023;-75
2024/03/20 02:50:40;;;;;;;78.57;41.87;;;;;;;3.65;59.56;100802.97;5043959;27;96740;-74
2024/03/20 02:53:06;;;;;;;85.93;40.77;;;;;;;3.56;59.13;100771.78;5050702;27;97634;-76
2024/03/20 02:55:35;;;;;;;84.57;41.23;;;;;;;3.48;59.63;100802.91;5067485;27;101379;-78
2024/03/20 02:58:02;;;;;;;76.77;41.70;;;;;;;3.23;60.41;100772.56;5037386;27;97767;-79
2024/03/20 03:00:28;;;;;;;84.67;42.53;;;;;;;3.30;60.00;100769.13;5051132;27;96784;-75
2024/03/20 03:02:54;;;;;;;81.27;42.60;;;;;;;3.45;59.54;100797.72;5036407;27;101072;-74
2024/03/20 03:05:21;;;;;;;80.63;40.50;;;;;;;3.48;59.79;100787.34;5023481;27;100953;-75
2024/03/20 03:07:47;;;;;;;82.40;41.93;;;;;;;3.54;59.42;100795.16;5051682;27;96888;-74
2024/03/20 03:10:14;;;;;;;79.83;41.67;;;;;;;3.49;59.66;100796.88;5072850;27;96721;-75
2024/03/20 03:12:41;;;;;;;88.37;43.13;;;;;;;2.98;60.59;100771.63;5064716;27;97556;-75
2024/03/20 03:15:07;;;;;;;72.83;39.77;;;;;;;3.23;60.12;100794.22;5051096;27;97982;-77
2024/03/20 03:17:32;;;;;;;80.23;43.40;;;;;;;3.22;60.55;100799.38;5063418;27;96832;-76
2024/03/20 03:19:58;;;;;;;77.70;41.53;;;;;;;3.19;60.32;100787.25;5050371;27;96935;-75
2024/03/20 03:22:24;;;;;;;73.10;40.97;;;;;;;3.16;60.50;100785.50;5047219;27;99650;-74
2024/03/20 03:24:49;;;;;;;82.57;41.40;;;;;;;3.24;60.41;100793.34;5043752;27;98457;-74
2024/03/20 03:27:14;;;;;;;80.23;42.27;;;;;;;3.09;60.70;100775.13;5075797;27;96784;-75
2024/03/20 03:29:40;;;;;;;81.40;39.70;;;;;;;3.11;60.51;100775.97;5040215;27;97035;-74
2024/03/20 03:32:06;;;;;;;78.80;41.17;;;;;;;3.00;60.88;100791.53;5021327;27;101599;-74
2024/03/20 03:34:32;;;;;;;74.40;40.97;;;;;;;2.95;60.66;100791.50;5054198;27;97336;-78
2024/03/20 03:36:58;;;;;;;79.80;41.03;;;;;;;2.72;61.42;100777.53;5058843;27;96753;-74
2024/03/20 03:39:24;;;;;;;80.27;40.53;;;;;;;2.69;61.64;100790.50;5040287;27;96974;-75
2024/03/20 03:41:49;;;;;;;72.53;40.03;;;;;;;2.81;61.06;100787.09;5043149;27;97249;-75
2024/03/20 03:44:15;;;;;;;80.90;40.83;;;;;;;3.07;60.81;100795.88;5075879;27;97360;-74
2024/03/20 03:46:41;;;;;;;74.53;39.17;;;;;;;3.05;60.61;100787.19;5073667;27;97420;-74
2024/03/20 03:49:07;;;;;;;76.53;39.03;;;;;;;3.02;60.93;100794.09;5043331;27;97243;-76
2024/03/20 03:51:33;;;;;;;73.03;40.13;;;;;;;2.78;61.58;100793.13;5077691;27;97411;-75
2024/03/20 03:53:58;;;;;;;78.07;41.10;;;;;;;2.46;61.86;100761.84;5059500;27;97353;-75
2024/03/20 03:56:24;;;;;;;80.70;42.70;;;;;;;2.58;62.03;100798.19;5039630;27;96797;-75
2024/03/20 03:58:50;;;;;;;78.60;40.27;;;;;;;2.52;61.88;100773.97;5073486;27;97024;-75
2024/03/20 04:01:15;;;;;;;76.03;39.23;;;;;;;2.72;61.50;100793.97;5057031;27;97517;-75
2024/03/20 04:03:41;;;;;;;76.10;41.60;;;;;;;2.78;61.56;100798.31;5062373;27;97389;-74
2024/03/20 04:06:06;;;;;;;78.60;40.47;;;;;;;2.66;61.79;100770.59;5060645;27;97218;-77
2024/03/20 04:08:32;;;;;;;78.90;41.03;;;;;;;2.64;61.49;100790.47;5022719;27;96891;-77
2024/03/20 04:10:57;;;;;;;80.90;40.23;;;;;;;2.69;61.52;100793.09;5070278;27;97891;-74
2024/03/20 04:13:23;;;;;;;69.40;37.97;;;;;;;2.78;61.40;100794.88;5041779;27;98093;-74
2024/03/20 04:15:48;;;;;;;69.53;37.67;;;;;;;2.65;61.19;100770.63;5068734;27;97150;-74
2024/03/20 04:18:16;;;;;;;77.93;37.83;;;;;;;2.83;60.88;100783.66;5080336;27;96847;-75
2024/03/20 04:20:42;;;;;;;74.53;37.80;;;;;;;2.88;60.65;100796.63;5042691;27;101769;-74
2024/03/20 04:23:07;;;;;;;73.43;38.90;;;;;;;2.93;60.75;100794.94;5052270;27;97303;-74
2024/03/20 04:25:33;;;;;;;76.07;37.73;;;;;;;3.01;60.71;100793.25;5043223;27;98037;-74
2024/03/20 04:27:59;;;;;;;80.83;40.90;;;;;;;2.88;60.82;100788.84;5043475;27;96880;-76
2024/03/20 04:30:25;;;;;;;82.03;41.63;;;;;;;2.82;60.70;100768.06;5059027;27;97776;-75
2024/03/20 04:32:50;;;;;;;77.77;40.53;;;;;;;2.97;60.36;100782.84;5040542;27;100921;-75
2024/03/20 04:35:15;;;;;;;84.23;41.40;;;;;;;3.03;60.35;100775.97;5038425;27;96725;-74
2024/03/20 04:37:41;;;;;;;88.80;43.03;;;;;;;2.79;60.49;100758.56;5025806;27;97668;-75
2024/03/20 04:40:07;;;;;;;87.50;43.00;;;;;;;2.83;60.22;100752.53;5059859;27;97565;-74
2024/03/20 04:42:36;;;;;;;86.77;43.10;;;;;;;3.15;60.15;100783.78;5053093;27;97369;-78
2024/03/20 04:45:02;;;;;;;85.00;43.23;;;;;;;3.22;59.80;100776.88;5039050;27;97196;-83
2024/03/20 04:47:28;;;;;;;80.47;42.53;;;;;;;2.71;60.07;100740.38;5041244;27;96779;-75
2024/03/20 04:49:54;;;;;;;87.83;43.30;;;;;;;2.94;60.55;100788.91;5037099;27;101049;-75
2024/03/20 04:52:19;;;;;;;76.00;40.73;;;;;;;2.99;60.04;100784.59;5056297;27;97957;-78
2024/03/20 04:54:45;;;;;;;75.47;40.03;;;;;;;2.83;60.03;100765.50;5055589;27;96705;-75
2024/03/20 04:57:10;;;;;;;79.90;41.43;;;;;;;3.11;60.06;100797.63;5049779;27;96714;-75
2024/03/20 04:59:35;;;;;;;80.80;42.90;;;;;;;3.09;60.03;100795.88;5050138;27;97568;-74
2024/03/20 05:02:02;;;;;;;74.97;40.37;;;;;;;3.17;59.66;100791.56;5042066;27;101070;-78
2024/03/20 05:04:27;;;;;;;74.23;38.70;;;;;;;2.83;60.09;100770.69;5038843;27;96839;-75
2024/03/20 05:06:53;;;;;;;78.77;40.83;;;;;;;3.05;59.97;100802.75;5058195;27;97220;-75
2024/03/20 05:09:19;;;;;;;73.43;39.87;;;;;;;2.97;59.98;100791.50;5055413;27;97402;-75
2024/03/20 05:11:45;;;;;;;82.27;40.03;;;;;;;2.80;59.77;100752.53;5035939;27;100932;-74
2024/03/20 05:14:10;;;;;;;77.30;40.97;;;;;;;2.84;59.86;100771.56;5033672;27;96724;-75
2024/03/20 05:16:36;;;;;;;75.60;38.73;;;;;;;3.09;60.04;100795.88;5028585;27;97080;-75
2024/03/20 05:19:02;;;;;;;75.23;39.70;;;;;;;2.88;60.07;100800.13;5037689;27;101290;-82
2024/03/20 05:21:27;;;;;;;79.53;40.93;;;;;;;2.96;60.02;100792.34;5021700;27;100720;-75
2024/03/20 05:23:53;;;;;;;84.07;41.33;;;;;;;2.72;60.71;100798.28;5055782;27;96900;-75
2024/03/20 05:26:19;;;;;;;79.47;41.70;;;;;;;2.66;60.76;100770.59;5035183;27;96846;-76
2024/03/20 05:28:44;;;;;;;78.00;43.23;;;;;;;2.85;60.67;100801.81;5051955;27;98048;-75
2024/03/20 05:31:25;;;;;;;77.93;41.13;;;;;;;2.83;60.64;100781.06;5053329;27;97207;-78
2024/03/20 05:33:50;;;;;;;83.93;43.10;;;;;;;2.87;60.74;100800.09;5048384;27;98006;-75
2024/03/20 05:36:16;;;;;;;80.10;41.83;;;;;;;2.81;60.32;100776.72;5035655;27;97464;-78
2024/03/20 05:38:41;;;;;;;77.00;41.33;;;;;;;3.05;60.50;100802.75;5035110;27;101177;-75
2024/03/20 05:41:07;;;;;;;78.97;42.30;;;;;;;3.20;60.24;100809.78;5033437;27;101288;-77
2024/03/20 05:43:32;;;;;;;78.37;40.67;;;;;;;3.38;59.67;100803.78;5059029;27;96778;-75
2024/03/20 05:45:58;;;;;;;76.57;38.73;;;;;;;3.13;59.70;100776.88;5036664;27;96960;-76
2024/03/20 05:48:23;;;;;;;82.80;43.93;;;;;;;3.30;59.81;100814.13;5047207;27;100413;-78
2024/03/20 05:50:49;;;;;;;73.93;40.53;;;;;;;3.47;59.57;100821.09;5033340;27;99047;-78
2024/03/20 05:53:14;;;;;;;71.57;40.20;;;;;;;3.59;59.10;100805.56;5054959;27;96717;-75
2024/03/20 05:55:40;;;;;;;81.27;42.67;;;;;;;3.75;59.20;100811.63;5021460;27;96842;-77
2024/03/20 05:58:05;;;;;;;75.50;40.13;;;;;;;3.94;58.60;100812.53;5040004;27;101511;-77
2024/03/20 06:00:31;;;;;;;79.60;41.67;;;;;;;3.90;58.58;100783.09;5025135;27;100071;-79
2024/03/20 06:02:57;;;;;;;81.50;40.83;;;;;;;4.14;58.28;100803.00;5037878;27;96962;-80
2024/03/20 06:05:23;;;;;;;77.17;40.13;;;;;;;4.26;57.63;100820.34;5040928;27;96787;-76
2024/03/20 06:07:48;;;;;;;79.73;42.57;;;;;;;4.50;57.29;100806.44;5055532;27;97560;-71
2024/03/20 06:10:14;;;;;;;78.03;40.20;;;;;;;4.74;57.26;100828.94;5061819;27;97450;-78
2024/03/20 06:12:40;;;;;;;74.57;41.80;;;;;;;5.01;56.73;100816.75;5040936;27;96864;-78
2024/03/20 06:15:07;;;;;;;79.77;41.10;;;;;;;5.19;56.53;100819.28;5058755;27;97176;-78
2024/03/20 06:17:33;;;;;;;73.87;39.27;;;;;;;5.46;56.09;100818.28;5054096;27;97813;-78
2024/03/20 06:19:59;;;;;;;76.47;39.70;;;;;;;5.76;54.97;100817.25;5044919;27;100638;-77
2024/03/20 06:22:25;;;;;;;67.63;38.33;;;;;;;5.78;53.94;100815.47;5062112;27;97124;-78
2024/03/20 06:24:50;;;;;;;71.80;38.67;;;;;;;6.07;53.61;100817.91;5056796;27;96808;-78
2024/03/20 06:27:17;;;;;;;75.00;40.97;;;;;;;6.24;53.68;100829.94;5053686;27;98087;-77
2024/03/20 06:29:43;;;;;;;69.03;39.10;;;;;;;6.45;52.43;100826.28;5040453;27;101232;-79
2024/03/20 06:32:08;;;;;;;72.82;37.63;;;;;;;6.65;52.65;100826.09;5054555;27;97130;-79
2024/03/20 06:34:34;;;;;;;70.10;38.05;;;;;;;6.96;52.14;100830.13;5058161;27;96760;-78
2024/03/20 06:36:59;;;;;;;74.07;38.53;;;;;;;6.92;51.68;100804.06;5037145;27;98239;-78
2024/03/20 06:39:25;;;;;;;67.68;38.03;;;;;;;7.60;50.40;100830.22;5036120;27;101114;-79
2024/03/20 06:41:50;;;;;;;66.28;37.65;;;;;;;7.96;50.73;100834.03;5069334;27;96741;-78
2024/03/20 06:44:17;;;;;;;77.93;41.45;;;;;;;8.17;49.25;100809.31;5040798;27;97417;-78
2024/03/20 06:46:45;;;;;;;65.78;38.50;;;;;;;8.16;48.67;100831.97;5052829;27;98138;-78
2024/03/20 06:49:10;;;;;;;67.32;37.80;;;;;;;9.06;48.04;100831.31;5045906;27;97353;-78
2024/03/20 06:51:36;;;;;;;67.65;37.60;;;;;;;9.56;46.95;100832.00;5036734;27;97275;-81
2024/03/20 06:54:11;;;;;;;70.43;39.78;;;;;;;9.81;45.92;100828.84;5022357;27;99036;-80
2024/03/20 06:56:37;;;;;;;65.38;36.80;;;;;;;10.45;44.77;100827.34;5045387;27;100974;-82
2024/03/20 06:59:02;;;;;;;69.65;38.72;;;;;;;10.49;44.90;100826.34;5050861;27;97735;-81
2024/03/20 07:01:28;;;;;;;66.70;37.63;;;;;;;10.73;45.05;100822.19;5041411;27;96886;-81
2024/03/20 07:03:54;;;;;;;64.35;35.00;;;;;;;10.71;43.99;100816.16;5062791;27;96888;-81
2024/03/20 07:06:19;;;;;;;72.43;38.67;;;;;;;10.97;44.08;100839.09;5027995;27;101541;-80
2024/03/20 07:08:45;;;;;;;66.10;35.08;;;;;;;11.51;43.63;100827.88;5028870;27;101022;-80
2024/03/20 07:11:11;;;;;;;68.28;36.38;;;;;;;11.65;42.74;100824.84;5045041;27;96884;-78
2024/03/20 07:13:36;;;;;;;60.65;35.47;;;;;;;12.19;41.38;100804.78;5044580;27;97012;-78
2024/03/20 07:16:02;;;;;;;58.38;34.65;;;;;;;12.67;41.01;100818.03;5060102;27;97510;-78
2024/03/20 07:18:27;;;;;;;64.45;34.50;;;;;;;12.44;40.55;100807.44;5050778;27;101491;-81
2024/03/20 07:20:53;;;;;;;60.63;33.33;;;;;;;12.71;40.50;100818.78;5026205;27;96778;-79
2024/03/20 07:23:19;;;;;;;58.10;32.10;;;;;;;13.40;40.02;100812.81;5040710;27;96977;-79
2024/03/20 07:25:44;;;;;;;53.20;31.90;;;;;;;14.12;37.99;100820.53;5053825;27;97629;-78
2024/03/20 07:28:12;;;;;;;58.10;31.88;;;;;;;13.69;38.78;100830.16;5041595;27;101189;-79
2024/03/20 07:30:38;;;;;;;49.38;29.83;;;;;;;13.64;38.19;100827.69;5061991;27;96883;-78
2024/03/20 07:33:04;;;;;;;55.88;31.48;;;;;;;13.34;38.48;100801.56;5041623;27;97112;-79
2024/03/20 07:35:43;;;;;;;55.92;33.83;;;;;;;13.68;38.64;100821.38;5057391;27;97575;-79
2024/03/20 07:38:09;;;;;;;48.13;31.25;;;;;;;13.61;38.23;100811.97;5061774;27;97686;-79
2024/03/20 07:40:35;;;;;;;48.05;31.77;;;;;;;13.39;38.12;100797.91;5046734;27;97131;-79
2024/03/20 07:43:01;;;;;;;54.17;32.90;;;;;;;13.56;38.56;100824.50;5044029;27;96855;-78
2024/03/20 07:45:26;;;;;;;57.85;32.88;;;;;;;13.83;38.37;100817.28;5034699;27;98247;-79
2024/03/20 07:47:52;;;;;;;49.33;31.40;;;;;;;14.33;37.89;100810.88;5044272;27;97868;-79
2024/03/20 07:50:18;;;;;;;45.97;28.88;;;;;;;15.63;36.43;100799.81;5063303;27;96916;-83
2024/03/20 07:52:43;;;;;;;47.88;29.85;;;;;;;16.34;34.57;100799.88;5077884;27;98128;-77
2024/03/20 07:55:09;;;;;;;43.70;26.48;;;;;;;16.14;34.48;100807.97;5071145;27;97556;-80
2024/03/20 07:57:34;;;;;;;45.42;28.05;;;;;;;16.60;33.89;100800.34;5052696;27;98347;-79
2024/03/20 08:00:00;;;;;;;40.33;26.30;;;;;;;16.95;34.00;100811.81;5063961;27;98272;-79
2024/03/20 08:02:25;;;;;;;32.45;23.05;;;;;;;16.29;33.51;100768.34;5045481;27;96986;-80
2024/03/20 08:04:51;;;;;;;38.28;25.35;;;;;;;16.32;33.60;100812.38;5054660;27;97552;-81
2024/03/20 08:07:17;;;;;;;31.15;23.25;;;;;;;17.78;32.34;100810.00;5054378;27;97970;-80
2024/03/20 08:09:43;;;;;;;34.67;21.63;;;;;;;17.45;32.15;100810.88;5033009;27;97240;-80
2024/03/20 08:12:09;;;;;;;35.38;24.23;;;;;;;17.88;31.51;100797.88;5065686;27;96884;-80
2024/03/20 08:14:34;;;;;;;37.60;22.98;;;;;;;18.85;31.40;100818.81;5049951;27;97993;-82
2024/03/20 08:17:00;;;;;;;37.15;23.85;;;;;;;19.76;30.16;100814.06;5048828;27;101125;-80
2024/03/20 08:19:27;;;;;;;35.15;23.88;;;;;;;20.17;29.19;100798.00;5036463;27;96809;-78
2024/03/20 08:21:52;;;;;;;36.67;23.60;;;;;;;19.41;29.70;100812.66;5053070;27;98169;-79
2024/03/20 08:24:18;;;;;;;35.85;22.85;;;;;;;18.18;31.19;100791.75;5074121;27;97681;-79
2024/03/20 08:26:43;;;;;;;38.50;25.13;;;;;;;17.91;32.16;100820.75;5066392;27;97847;-80
2024/03/20 08:29:09;;;;;;;34.10;24.15;;;;;;;17.13;32.66;100816.16;5038034;27;97205;-81
2024/03/20 08:31:34;;;;;;;34.10;22.20;;;;;;;16.52;33.40;100819.28;5048967;27;97527;-80
2024/03/20 08:34:00;;;;;;;34.10;23.45;;;;;;;16.01;34.70;100795.34;5073926;27;98368;-82
2024/03/20 08:36:25;;;;;;;35.45;22.17;;;;;;;15.58;34.73;100810.59;5055026;27;97489;-82
2024/03/20 08:38:51;;;;;;;32.15;22.02;;;;;;;14.65;35.98;100799.81;5054251;27;96902;-81
2024/03/20 08:41:16;;;;;;;35.17;22.40;;;;;;;14.33;36.77;100800.31;5061404;27;97048;-82
2024/03/20 08:43:42;;;;;;;29.17;21.48;;;;;;;14.91;36.25;100819.81;5078115;27;97496;-81
2024/03/20 08:46:10;;;;;;;35.30;23.15;;;;;;;15.17;35.55;100792.22;5079036;27;97789;-81
2024/03/20 08:48:36;;;;;;;34.33;21.92;;;;;;;15.12;35.75;100794.19;5045401;27;97270;-81
2024/03/20 08:51:02;;;;;;;41.65;22.40;;;;;;;15.10;35.94;100787.28;5063985;27;97379;-82
2024/03/20 08:53:30;;;;;;;37.60;22.52;;;;;;;15.50;35.77;100791.56;5077072;27;98126;-80
2024/03/20 08:55:56;;;;;;;35.97;22.55;;;;;;;16.02;34.80;100796.19;5060364;27;97906;-80
2024/03/20 08:58:22;;;;;;;28.25;20.58;;;;;;;16.82;33.81;100808.09;5043164;27;97039;-79
2024/03/20 09:00:47;;;;;;;33.05;20.95;;;;;;;17.31;33.24;100787.75;5062094;27;97239;-80
2024/03/20 09:03:12;;;;;;;31.13;18.92;;;;;;;17.55;32.60;100790.84;5058873;27;98590;-78
2024/03/20 09:05:40;;;;;;;33.25;19.95;;;;;;;17.66;32.18;100792.91;5074505;27;98347;-77
2024/03/20 09:08:08;;;;;;;33.03;21.17;;;;;;;17.33;32.17;100779.69;5034563;27;97283;-77
2024/03/20 09:10:34;;;;;;;29.15;20.25;;;;;;;17.23;32.82;100808.53;5060528;27;96882;-80
2024/03/20 09:13:00;;;;;;;28.00;20.30;;;;;;;16.93;33.49;100806.59;5074567;27;97700;-77
2024/03/20 09:15:26;;;;;;;39.60;21.15;;;;;;;16.46;33.60;100814.31;5035477;27;98325;-78
2024/03/20 09:17:52;;;;;;;35.90;21.60;;;;;;;15.92;34.40;100816.13;5045103;27;96777;-78
2024/03/20 09:20:25;;;;;;;26.85;18.80;;;;;;;15.92;34.36;100800.22;5045956;27;96851;-79
2024/03/20 09:22:52;;;;;;;31.73;20.38;;;;;;;17.43;33.42;100818.06;5039963;27;101226;-77
2024/03/20 09:25:18;;;;;;;33.42;21.30;;;;;;;19.02;31.86;100800.00;5027912;27;101347;-78
2024/03/20 09:27:45;;;;;;;31.80;18.98;;;;;;;20.61;29.35;100769.34;5065365;27;96817;-81
2024/03/20 09:30:15;;;;;;;29.63;18.85;;;;;;;21.87;27.08;100774.56;5058390;27;96893;-78
2024/03/20 09:32:44;;;;;;;24.35;18.02;;;;;;;22.71;25.85;100773.53;5037981;27;99188;-79
2024/03/20 09:35:12;;;;;;;20.42;16.63;;;;;;;22.48;25.32;100780.66;5041886;27;97229;-78
2024/03/20 09:37:38;;;;;;;23.27;15.80;;;;;;;22.49;25.48;100784.19;5037974;27;96934;-78
2024/03/20 09:40:23;;;;;;;20.27;15.98;;;;;;;22.43;25.15;100773.94;5050060;27;97554;-82
2024/03/20 09:42:51;;;;;;;45.22;24.65;;;;;;;22.49;25.43;100782.38;5048555;27;100977;-72
2024/03/20 09:45:18;;;;;;;20.55;15.10;;;;;;;22.95;24.28;100788.66;5056098;27;97931;-82
2024/03/20 09:47:43;;;;;;;22.30;14.48;;;;;;;23.74;23.33;100762.69;5052155;27;96899;-81
2024/03/20 09:50:12;;;;;;;19.52;13.73;;;;;;;23.69;23.12;100732.72;5059376;27;96825;-84
2024/03/20 09:52:38;;;;;;;18.95;13.88;;;;;;;23.89;22.56;100785.56;5082421;27;97558;-82
2024/03/20 09:55:06;;;;;;;16.50;12.80;;;;;;;23.64;23.08;100783.13;5061767;27;97315;-81
2024/03/20 09:57:32;;;;;;;26.02;15.85;;;;;;;24.17;22.72;100770.69;5059852;27;96835;-83
2024/03/20 09:59:58;;;;;;;20.10;14.02;;;;;;;24.03;22.30;100760.28;5031250;27;96856;-81
2024/03/20 10:02:26;;;;;;;20.95;13.35;;;;;;;24.00;22.59;100754.28;5042044;27;100693;-81
2024/03/20 10:04:53;;;;;;;20.05;14.80;;;;;;;23.52;23.57;100771.59;5045876;27;101070;-81
2024/03/20 10:07:18;;;;;;;20.63;15.52;;;;;;;23.81;23.64;100771.06;5058186;27;96776;-81
2024/03/20 10:09:47;;;;;;;22.63;15.20;;;;;;;22.68;24.57;100763.06;5021639;27;97783;-81
2024/03/20 10:12:14;;;;;;;30.17;17.88;;;;;;;22.17;24.88;100767.91;5046297;27;99947;-79
2024/03/20 10:14:40;;;;;;;21.45;16.10;;;;;;;21.19;25.87;100767.91;5047533;27;97442;-79
2024/03/20 10:17:17;;;;;;;27.30;14.48;;;;;;;20.81;25.88;100763.47;5059030;27;97585;-82
2024/03/20 10:19:44;;;;;;;42.80;23.60;;;;;;;20.25;26.50;100747.72;5040653;27;97369;-78
2024/03/20 10:22:10;;;;;;;21.98;15.63;;;;;;;19.58;27.67;100760.16;5023798;27;97757;-78
2024/03/20 10:24:36;;;;;;;19.70;14.77;;;;;;;18.64;28.15;100739.38;5045748;27;97459;-79
2024/03/20 10:27:03;;;;;;;20.90;14.02;;;;;;;18.31;29.31;100761.72;5053124;27;97060;-79
2024/03/20 10:29:33;;;;;;;23.23;15.93;;;;;;;17.92;28.97;100743.66;5076955;27;96890;-83
2024/03/20 10:31:59;;;;;;;23.98;15.48;;;;;;;17.97;29.41;100748.69;5070150;27;99249;-82
2024/03/20 10:34:27;;;;;;;22.40;14.10;;;;;;;17.43;30.33;100752.59;5059260;27;97485;-83
2024/03/20 10:36:53;;;;;;;27.38;17.83;;;;;;;17.54;29.69;100740.50;5036611;27;96870;-78
2024/03/20 10:39:23;;;;;;;26.20;15.27;;;;;;;17.62;29.68;100722.34;5072532;27;97072;-78
2024/03/20 10:41:50;;;;;;;21.83;13.93;;;;;;;17.33;29.61;100724.84;5044542;27;97441;-77
2024/03/20 10:44:17;;;;;;;20.08;13.43;;;;;;;16.45;30.47;100741.91;5086733;27;96688;-78
2024/03/20 10:46:48;;;;;;;16.40;11.43;;;;;;;16.12;30.46;100733.91;5048581;27;97373;-79
2024/03/20 10:49:21;;;;;;;19.95;13.63;;;;;;;15.81;32.22;100740.72;5033558;27;97065;-78
2024/03/20 10:51:50;;;;;;;26.20;13.27;;;;;;;15.93;31.94;100711.94;5021175;27;98915;-77
2024/03/20 10:54:16;;;;;;;16.75;12.30;;;;;;;16.16;31.50;100726.66;5058979;27;97377;-77
2024/03/20 10:56:52;;;;;;;22.25;12.45;;;;;;;16.45;31.97;100727.81;5056683;27;97351;-77
2024/03/20 10:59:21;;;;;;;19.17;13.02;;;;;;;15.93;31.07;100728.66;5037132;27;96986;-77
2024/03/20 11:01:57;;;;;;;25.15;14.25;;;;;;;15.56;31.83;100725.16;5051636;27;97883;-77
2024/03/20 11:04:42;;;;;;;21.33;14.52;;;;;;;15.63;31.25;100696.59;5074409;27;98443;-77
2024/03/20 11:07:29;;;;;;;29.45;14.95;;;;;;;15.97;31.24;100726.72;5029546;27;97838;-77